Estació municipal de St. Hilari Sacalm (La Selva, Guilleries)

Consulta les dades en temps real de l'estació municipal de St. Hilari Sacalm





Hora UTC 03:20
Temperatura 6.1 ºC
Humitat 95.9 %
Pressió 1013.4 hPa
Pluja 0.0 mm
Velocitat vent 0.0 km/h
Direcció vent NNE
Radiació solar 0.1 W/m²

Webcam

Dades diàries 2026-05-07



Hora UTC (hivern +1h; estiu +2h)
Temperatura (ºC) Humitat (%) Pressió (hPa) Velocitat vent (km/h) Precipitació (mm) Radiació solar (W/m²)
Hora UTC Aire Humitat Pressió Vel. Dir. Vel. Max Dir. Intent. màx 5 min. Rad. Sol.
00:05 8.7 93.2 1014.2 0.0 NNE 0.0 NNE 0.0 0.1
00:10 8.6 93.2 1014.2 0.0 NNE 0.0 WNW 0.0 0.1
00:15 8.6 93.7 1014.2 0.0 NNE 0.0 NW 0.0 0.1
00:20 8.6 94.1 1014.1 0.0 NNE 0.0 NW 0.0 0.1
00:25 8.5 94.0 1014.1 0.0 NNE 0.0 NNW 0.0 0.1
00:30 8.4 93.9 1014.0 0.0 NNE 0.0 NNW 0.0 0.1
00:35 8.2 94.0 1014.0 0.0 NNE 0.0 NNW 0.0 0.1
00:40 8.2 94.2 1014.0 0.0 NNE 0.0 WNW 0.0 0.1
00:45 8.2 94.5 1014.0 0.0 NNE 0.0 NW 0.0 0.1
00:50 8.3 94.5 1014.0 0.0 NNE 0.0 NNW 0.0 0.1
00:55 8.1 94.2 1013.9 0.0 NNE 0.0 NNW 0.0 0.1
01:00 7.9 94.0 1013.9 0.0 NNE 0.0 NNW 0.0 0.1
01:05 8.0 94.4 1013.9 0.0 NNE 0.0 WSW 0.0 0.1
01:10 8.2 94.8 1013.8 0.0 NNE 0.0 W 0.0 0.1
01:15 8.2 94.8 1013.8 0.0 NNE 0.0 WNW 0.0 0.1
01:20 8.1 94.5 1013.7 0.0 NNE 0.0 WNW 0.0 0.1
01:25 8.0 94.5 1013.7 0.0 NNE 0.0 WSW 0.0 0.1
01:30 7.8 94.5 1013.7 0.0 NNE 0.0 W 0.0 0.1
01:35 7.7 94.5 1013.6 0.0 NNE 0.0 WNW 0.0 0.1
01:40 7.5 94.7 1013.6 0.0 NNE 0.0 WNW 0.0 0.1
01:45 7.4 94.7 1013.6 0.0 NNE 0.0 W 0.0 0.1
01:50 7.3 94.9 1013.6 0.0 NNE 0.0 WNW 0.0 0.1
01:55 7.2 95.0 1013.6 0.0 NNE 0.0 WNW 0.0 0.1
02:00 7.1 95.0 1013.6 0.0 NNE 0.0 WSW 0.0 0.1
02:05 7.0 95.0 1013.6 0.0 NNE 0.0 W 0.0 0.1
02:10 7.0 95.3 1013.6 0.0 NNE 0.0 WSW 0.0 0.1
02:15 7.1 95.5 1013.5 0.0 NNE 0.0 W 0.0 0.1
02:20 7.1 95.6 1013.5 0.0 NNE 0.0 SW 0.0 0.1
02:25 6.9 95.5 1013.5 0.0 NNE 0.0 WSW 0.0 0.1
02:30 6.9 95.6 1013.5 0.0 NNE 0.0 W 0.0 0.1
02:35 7.0 95.9 1013.4 0.0 NNE 0.0 NNW 0.0 0.1
02:40 6.9 95.8 1013.4 0.0 NNE 0.0 WNW 0.0 0.1
02:45 6.7 95.6 1013.4 0.0 NNE 0.0 WNW 0.0 0.1
02:50 6.5 95.5 1013.4 0.0 NNE 0.0 WSW 0.0 0.1
02:55 6.5 95.8 1013.4 0.0 NNE 0.0 W 0.0 0.1
03:00 6.4 95.7 1013.4 0.0 NNE 0.0 WNW 0.0 0.1
03:05 6.3 95.7 1013.4 0.0 NNE 0.0 W 0.0 0.1
03:10 6.2 95.7 1013.4 0.0 NNE 0.0 WNW 0.0 0.1
03:15 6.1 95.9 1013.4 0.0 NNE 0.0 WNW 0.0 0.1
03:20 6.1 95.9 1013.4 0.0 NNE 0.0 W 0.0 0.1
Màxima 8.7 95.9 1014.2 0.0 NNE 0.0 W 0.0 0.1
Mínima 6.1 93.2 1013.4
Total 0.0